Time;durP1;ratioP1;P1;durP2;ratioP2;P2;SDS_P1;SDS_P2;PMS_P1;PMS_P2;Temp;Humidity;BMP_temperature;BMP_pressure;BME280_temperature;BME280_humidity;BME280_pressure;Samples;Min_cycle;Max_cycle;Signal;HPM_P1;HPM_P2
2021/08/19 00:01:34;;;;;;;;;3.25;2.50;;;;;20.43;73.53;101404.00;5058110;28;45422;-60
2021/08/19 00:03:59;;;;;;;;;3.00;3.00;;;;;20.39;73.61;101405.06;5059483;28;45362;-59
2021/08/19 00:06:25;;;;;;;;;3.75;3.75;;;;;20.39;73.82;101406.84;5074655;28;45252;-60
2021/08/19 00:08:50;;;;;;;;;2.00;2.00;;;;;20.31;73.98;101409.94;5062001;28;45359;-60
2021/08/19 00:11:15;;;;;;;;;2.25;2.25;;;;;20.26;74.15;101407.56;5062595;28;45465;-59
2021/08/19 00:13:41;;;;;;;;;3.25;3.25;;;;;20.23;73.57;101410.38;5062570;28;45310;-59
2021/08/19 00:16:07;;;;;;;;;1.50;1.50;;;;;20.20;74.23;101404.41;5070823;28;45283;-59
2021/08/19 00:18:34;;;;;;;;;6.75;3.50;;;;;20.18;74.53;101404.50;5062831;28;45327;-59
2021/08/19 00:20:59;;;;;;;;;1.75;1.75;;;;;20.16;74.13;101406.38;5062546;28;45390;-58
2021/08/19 00:23:24;;;;;;;;;4.00;2.75;;;;;20.13;74.27;101406.56;5062301;28;46095;-58
2021/08/19 00:25:50;;;;;;;;;4.25;3.00;;;;;20.08;74.06;101398.06;5062283;28;45228;-58
2021/08/19 00:28:16;;;;;;;;;4.00;3.50;;;;;20.09;74.21;101398.91;5062337;28;46436;-58
2021/08/19 00:30:41;;;;;;;;;2.00;2.00;;;;;20.07;74.16;101385.78;5051566;28;45403;-58
2021/08/19 00:33:06;;;;;;;;;3.00;3.00;;;;;20.11;74.07;101386.47;5047918;28;46324;-58
2021/08/19 00:35:32;;;;;;;;;3.00;1.25;;;;;20.11;73.59;101379.41;5050337;28;45397;-57
2021/08/19 00:37:57;;;;;;;;;3.00;3.00;;;;;20.10;73.31;101377.69;5054067;28;45275;-58
2021/08/19 00:40:23;;;;;;;;;3.50;3.50;;;;;20.10;73.25;101382.97;5056122;28;45556;-58
2021/08/19 00:42:48;;;;;;;;;4.00;3.50;;;;;20.10;73.41;101371.56;5053437;28;46097;-58
2021/08/19 00:45:13;;;;;;;;;1.75;1.75;;;;;20.08;73.17;101371.66;5052247;28;45414;-58
2021/08/19 00:47:40;;;;;;;;;1.75;1.75;;;;;20.11;73.50;101368.00;5063687;28;45306;-58
2021/08/19 00:50:07;;;;;;;;;2.75;2.75;;;;;20.15;72.95;101373.00;5061823;28;45368;-58
2021/08/19 00:52:33;;;;;;;;;3.75;3.00;;;;;20.13;73.21;101377.53;5061989;28;46415;-58
2021/08/19 00:55:00;;;;;;;;;1.25;1.25;;;;;20.11;73.67;101368.84;5062425;28;45639;-58
2021/08/19 00:57:25;;;;;;;;;3.50;2.75;;;;;20.09;74.11;101368.09;5061777;28;45533;-58
2021/08/19 00:59:52;;;;;;;;;2.25;2.25;;;;;20.04;73.96;101372.78;5062068;28;45371;-58
2021/08/19 01:02:20;;;;;;;;;2.25;2.25;;;;;20.03;73.89;101376.38;5051832;28;46149;-58
2021/08/19 01:04:46;;;;;;;;;5.00;3.00;;;;;20.04;73.67;101372.78;5062189;28;45648;-58
2021/08/19 01:07:12;;;;;;;;;4.25;2.00;;;;;20.05;74.24;101369.22;5070794;28;45435;-58
2021/08/19 01:09:38;;;;;;;;;3.00;2.75;;;;;20.05;74.83;101369.22;5061965;28;45319;-57
2021/08/19 01:12:06;;;;;;;;;2.75;2.75;;;;;20.03;74.21;101368.44;5061658;28;46227;-58
2021/08/19 01:14:32;;;;;;;;;5.00;3.50;;;;;20.03;73.76;101369.28;5061524;28;45542;-58
2021/08/19 01:16:57;;;;;;;;;2.25;2.00;;;;;20.05;73.75;101369.22;5060909;28;45263;-58
2021/08/19 01:19:23;;;;;;;;;3.00;3.00;;;;;20.05;73.83;101369.22;5061336;28;45417;-57
2021/08/19 01:21:50;;;;;;;;;2.25;1.50;;;;;19.99;73.75;101359.81;5061540;28;46326;-57
2021/08/19 01:24:16;;;;;;;;;4.00;2.50;;;;;19.95;73.57;101360.09;5061006;28;45442;-58
2021/08/19 01:26:42;;;;;;;;;3.00;2.00;;;;;19.97;73.47;101358.22;5061926;28;45380;-58
2021/08/19 01:29:08;;;;;;;;;4.50;4.00;;;;;19.98;73.32;101355.50;5061246;28;45684;-58
2021/08/19 01:31:35;;;;;;;;;3.00;2.00;;;;;19.92;73.60;101350.56;5058245;28;46354;-57
2021/08/19 01:34:01;;;;;;;;;2.50;2.50;;;;;19.90;73.33;101349.81;5061384;28;45166;-58
2021/08/19 01:36:26;;;;;;;;;3.00;3.00;;;;;19.88;73.43;101354.31;5061619;28;45469;-57
2021/08/19 01:38:52;;;;;;;;;3.00;2.00;;;;;19.83;73.15;101350.25;5069638;28;45266;-58
2021/08/19 01:41:18;;;;;;;;;1.75;1.75;;;;;19.82;73.57;101343.25;5063095;28;45434;-58
2021/08/19 01:43:47;;;;;;;;;3.25;3.00;;;;;19.83;73.41;101347.63;5060788;28;45430;-58
2021/08/19 01:46:14;;;;;;;;;2.25;2.25;;;;;19.79;73.70;101346.06;5060631;28;45801;-58
2021/08/19 01:48:41;;;;;;;;;4.25;3.00;;;;;19.78;73.16;101339.94;5064465;28;45441;-57
2021/08/19 01:51:08;;;;;;;;;3.00;3.00;;;;;19.78;73.37;101344.38;5061114;28;46080;-58
2021/08/19 01:53:33;;;;;;;;;3.50;2.75;;;;;19.77;73.39;101340.88;5061053;28;45583;-58
2021/08/19 01:55:59;;;;;;;;;3.00;3.00;;;;;19.80;73.51;101358.31;5061378;28;45259;-59
2021/08/19 01:58:25;;;;;;;;;2.50;2.50;;;;;19.81;73.44;101350.31;5060593;28;45426;-58
2021/08/19 02:00:51;;;;;;;;;2.75;2.75;;;;;19.80;73.33;101345.97;5060137;28;46191;-58
2021/08/19 02:03:16;;;;;;;;;3.00;2.75;;;;;19.74;73.56;101347.19;5060970;28;45340;-58
2021/08/19 02:05:42;;;;;;;;;2.75;2.75;;;;;19.69;73.72;101349.22;5052867;28;45280;-58
2021/08/19 02:08:09;;;;;;;;;2.00;2.00;;;;;19.63;74.13;101344.31;5059659;28;45444;-58
2021/08/19 02:10:36;;;;;;;;;3.25;1.50;;;;;19.59;73.71;101348.03;5060830;28;46116;-58
2021/08/19 02:13:02;;;;;;;;;1.00;0.00;;;;;19.60;74.26;101343.59;5060522;28;45152;-58
2021/08/19 02:15:28;;;;;;;;;3.75;3.00;;;;;19.58;74.11;101337.56;5060271;28;45252;-58
2021/08/19 02:17:53;;;;;;;;;4.25;3.50;;;;;19.55;74.51;101337.75;5059941;28;45279;-58
2021/08/19 02:20:19;;;;;;;;;5.00;3.50;;;;;19.55;74.09;101340.38;5060279;28;46295;-58
2021/08/19 02:22:47;;;;;;;;;5.25;4.00;;;;;19.53;73.84;101335.16;5060694;28;45304;-59
2021/08/19 02:25:13;;;;;;;;;4.00;3.75;;;;;19.49;74.03;101338.91;5060721;28;45471;-58
2021/08/19 02:27:38;;;;;;;;;4.00;2.75;;;;;19.46;74.51;101344.34;5060335;27;45536;-58
2021/08/19 02:30:04;;;;;;;;;3.00;2.75;;;;;19.45;74.33;101335.59;5059278;28;46240;-57
2021/08/19 02:32:29;;;;;;;;;0.75;0.75;;;;;19.50;74.14;101331.84;5059967;28;45161;-58
2021/08/19 02:34:55;;;;;;;;;5.25;4.25;;;;;19.54;73.81;101333.41;5060840;28;45563;-58
2021/08/19 02:37:21;;;;;;;;;4.00;2.75;;;;;19.53;73.98;101323.75;5060752;28;45240;-58
2021/08/19 02:39:46;;;;;;;;;3.50;3.50;;;;;19.49;73.80;101323.09;5062556;28;45469;-58
2021/08/19 02:42:11;;;;;;;;;3.00;3.00;;;;;19.51;73.87;101323.84;5060331;28;45296;-58
2021/08/19 02:44:37;;;;;;;;;3.75;3.00;;;;;19.51;73.97;101321.22;5059868;28;45303;-58
2021/08/19 02:47:02;;;;;;;;;3.75;3.00;;;;;19.51;74.18;101318.59;5061994;28;45200;-58
2021/08/19 02:49:28;;;;;;;;;3.50;3.50;;;;;19.50;74.43;101322.16;5059716;28;46322;-58
2021/08/19 02:51:53;;;;;;;;;5.00;5.00;;;;;19.47;74.05;101314.41;5059590;28;45143;-58
2021/08/19 02:54:18;;;;;;;;;3.25;3.25;;;;;19.45;73.85;101309.22;5060613;28;45300;-58
2021/08/19 02:56:43;;;;;;;;;4.00;4.00;;;;;19.44;74.19;101309.31;5060286;28;45441;-59
2021/08/19 02:59:09;;;;;;;;;3.00;3.00;;;;;19.44;74.25;101319.88;5059772;28;45371;-59
2021/08/19 03:01:34;;;;;;;;;3.75;3.75;;;;;19.42;74.35;101309.41;5063891;28;45418;-60
2021/08/19 03:04:00;;;;;;;;;4.25;2.50;;;;;19.41;74.50;101306.81;5057495;28;45465;-58
2021/08/19 03:06:26;;;;;;;;;3.75;3.75;;;;;19.40;73.88;101313.03;5054576;28;45316;-58
2021/08/19 03:08:51;;;;;;;;;6.25;3.25;;;;;19.43;73.63;101307.63;5056318;28;45379;-58
2021/08/19 03:11:16;;;;;;;;;3.25;2.00;;;;;19.47;73.68;101305.66;5051442;28;45312;-58
2021/08/19 03:13:42;;;;;;;;;3.75;2.75;;;;;19.44;73.68;101304.06;5059786;28;45240;-58
2021/08/19 03:16:07;;;;;;;;;2.25;2.25;;;;;19.38;73.82;101310.47;5059298;28;45370;-58
2021/08/19 03:18:33;;;;;;;;;5.50;2.50;;;;;19.36;74.03;101303.59;5067561;28;45494;-58
2021/08/19 03:20:58;;;;;;;;;1.75;1.75;;;;;19.34;74.34;101301.06;5060486;28;45306;-58
2021/08/19 03:23:24;;;;;;;;;2.75;2.75;;;;;19.34;73.92;101310.75;5059675;28;45344;-58
2021/08/19 03:25:49;;;;;;;;;3.00;2.75;;;;;19.35;74.10;101307.19;5059463;28;45280;-58
2021/08/19 03:28:15;;;;;;;;;3.00;3.00;;;;;19.35;74.08;101304.53;5059457;28;46247;-58
2021/08/19 03:30:42;;;;;;;;;3.25;3.25;;;;;19.34;73.91;101308.09;5059399;28;45331;-58
2021/08/19 03:33:07;;;;;;;;;7.00;4.00;;;;;19.35;74.22;101308.03;5059938;28;45343;-58
2021/08/19 03:35:33;;;;;;;;;3.00;3.00;;;;;19.38;73.38;101294.66;5059399;28;45438;-58
2021/08/19 03:37:59;;;;;;;;;5.50;4.00;;;;;19.35;73.59;101302.75;5067183;28;46285;-58
2021/08/19 03:40:24;;;;;;;;;3.75;3.00;;;;;19.35;73.42;101301.91;5060029;28;45378;-58
2021/08/19 03:42:49;;;;;;;;;3.25;3.00;;;;;19.32;73.90;101296.81;5059152;28;46080;-58
2021/08/19 03:45:18;;;;;;;;;4.00;4.00;;;;;19.32;73.50;101299.44;5058391;28;45595;-58
2021/08/19 03:47:44;;;;;;;;;4.00;4.00;;;;;19.30;73.39;101296.88;5058221;28;46941;-58
2021/08/19 03:50:09;;;;;;;;;3.00;3.00;;;;;19.25;73.29;101290.19;5058435;28;45374;-58
2021/08/19 03:52:35;;;;;;;;;3.00;3.00;;;;;19.18;73.96;101299.34;5059262;28;45251;-58
2021/08/19 03:55:01;;;;;;;;;5.25;4.50;;;;;19.13;74.27;101292.53;5059278;28;45195;-58
2021/08/19 03:57:26;;;;;;;;;4.75;4.00;;;;;19.11;73.94;101294.41;5058899;28;47030;-58
2021/08/19 03:59:51;;;;;;;;;5.00;4.00;;;;;19.10;74.01;101297.97;5058755;28;46092;-58
2021/08/19 04:02:17;;;;;;;;;10.25;6.75;;;;;19.12;73.65;101285.56;5059166;28;45352;-58
2021/08/19 04:04:42;;;;;;;;;4.25;4.00;;;;;19.15;73.67;101295.94;5059157;28;45159;-58
2021/08/19 04:07:07;;;;;;;;;4.75;4.75;;;;;19.15;73.93;101290.66;5057922;28;47175;-58
2021/08/19 04:09:33;;;;;;;;;6.75;5.75;;;;;19.18;74.16;101299.34;5059056;28;45429;-58
2021/08/19 04:11:58;;;;;;;;;8.25;6.00;;;;;19.18;73.85;101294.06;5059114;28;45422;-58
2021/08/19 04:14:23;;;;;;;;;3.00;3.00;;;;;19.23;73.86;101297.31;5051588;28;45355;-58
2021/08/19 04:16:49;;;;;;;;;6.25;6.00;;;;;19.26;73.26;101299.78;5052159;28;45469;-59
2021/08/19 04:19:14;;;;;;;;;5.75;4.50;;;;;19.31;73.74;101295.97;5054183;28;45362;-58
2021/08/19 04:21:39;;;;;;;;;5.00;4.50;;;;;19.33;73.13;101298.50;5051707;28;45422;-59
2021/08/19 04:24:05;;;;;;;;;4.25;3.25;;;;;19.33;73.28;101293.22;5049865;28;45327;-59
2021/08/19 04:26:30;;;;;;;;;6.00;3.75;;;;;19.33;73.41;101296.72;5052135;28;45329;-60
2021/08/19 04:28:55;;;;;;;;;5.00;5.00;;;;;19.37;73.03;101286.84;5053432;28;45504;-59
2021/08/19 04:31:21;;;;;;;;;7.50;6.00;;;;;19.42;72.82;101297.97;5048621;28;45278;-59
2021/08/19 04:33:46;;;;;;;;;6.00;5.50;;;;;19.42;73.04;101288.31;5048983;28;45292;-59
2021/08/19 04:36:11;;;;;;;;;6.25;4.75;;;;;19.42;72.82;101287.44;5056290;28;45338;-59
2021/08/19 04:38:37;;;;;;;;;5.75;4.75;;;;;19.38;73.10;101296.47;5052662;28;45479;-59
2021/08/19 04:41:03;;;;;;;;;5.00;4.75;;;;;19.29;73.56;101289.06;5052398;28;45554;-59
2021/08/19 04:43:28;;;;;;;;;5.25;4.00;;;;;19.24;73.65;101289.34;5049088;28;45371;-59
2021/08/19 04:45:54;;;;;;;;;7.00;5.00;;;;;19.25;74.01;101290.19;5051510;28;46167;-59
2021/08/19 04:48:19;;;;;;;;;5.00;5.00;;;;;19.28;73.38;101290.00;5052554;28;45446;-59
2021/08/19 04:50:45;;;;;;;;;5.00;3.75;;;;;19.34;73.48;101289.66;5054385;28;45528;-59
2021/08/19 04:53:10;;;;;;;;;6.25;3.50;;;;;19.34;73.23;101293.16;5049058;28;45398;-59
2021/08/19 04:55:35;;;;;;;;;6.50;4.75;;;;;19.36;73.57;101295.69;5055719;28;46277;-59
2021/08/19 04:58:01;;;;;;;;;10.50;6.00;;;;;19.32;73.35;101302.94;5056257;28;45208;-59
2021/08/19 05:00:26;;;;;;;;;10.50;4.75;;;;;19.28;73.34;101304.03;5052216;28;45301;-59
2021/08/19 05:02:51;;;;;;;;;8.50;5.50;;;;;19.26;73.76;101307.69;5052184;28;45478;-59
2021/08/19 05:05:17;;;;;;;;;5.75;5.25;;;;;19.20;74.09;101308.84;5053020;28;45330;-59
2021/08/19 05:07:42;;;;;;;;;6.50;5.50;;;;;19.16;74.41;101299.41;5053072;28;45486;-59
2021/08/19 05:10:08;;;;;;;;;12.00;8.00;;;;;19.18;74.08;101299.34;5057774;28;45459;-59
2021/08/19 05:12:33;;;;;;;;;7.00;6.50;;;;;19.20;74.63;101305.38;5052958;28;45553;-59
2021/08/19 05:14:59;;;;;;;;;8.50;7.00;;;;;19.19;74.18;101303.66;5054601;28;46238;-59
2021/08/19 05:17:24;;;;;;;;;7.50;7.50;;;;;19.19;74.66;101306.31;5069883;27;45445;-58
2021/08/19 05:19:49;;;;;;;;;9.75;6.25;;;;;19.22;74.38;101308.78;5055311;28;45481;-59
2021/08/19 05:22:15;;;;;;;;;9.00;7.00;;;;;19.24;73.71;101312.19;5055565;28;45441;-58
2021/08/19 05:24:40;;;;;;;;;8.00;6.00;;;;;19.26;73.98;101305.06;5054881;28;46029;-59
2021/08/19 05:27:06;;;;;;;;;7.75;6.25;;;;;19.27;74.08;101307.59;5052980;28;45482;-59
2021/08/19 05:29:31;;;;;;;;;9.75;7.00;;;;;19.26;74.28;101313.81;5051911;28;45273;-59
2021/08/19 05:31:56;;;;;;;;;10.25;5.75;;;;;19.20;73.90;101314.13;5051552;28;45461;-59
2021/08/19 05:34:22;;;;;;;;;10.75;8.50;;;;;19.19;73.93;101312.44;5055423;28;46278;-59
2021/08/19 05:36:47;;;;;;;;;7.00;6.00;;;;;19.25;74.13;101321.81;5061815;28;45302;-59
2021/08/19 05:39:12;;;;;;;;;16.00;10.50;;;;;19.32;73.84;101312.63;5058231;28;45465;-59
2021/08/19 05:41:37;;;;;;;;;15.50;11.00;;;;;19.35;73.53;101323.84;5054046;28;45358;-59
2021/08/19 05:44:04;;;;;;;;;8.25;7.00;;;;;19.34;73.44;101316.00;5051770;28;46450;-59
2021/08/19 05:46:29;;;;;;;;;10.00;6.75;;;;;19.37;73.54;101314.06;5052114;28;45771;-59
2021/08/19 05:48:54;;;;;;;;;10.75;6.75;;;;;19.46;73.14;101315.34;5053592;28;45632;-59
2021/08/19 05:51:20;;;;;;;;;10.75;7.25;;;;;19.44;72.45;101323.34;5054388;28;45564;-59
2021/08/19 05:53:45;;;;;;;;;8.50;7.00;;;;;19.40;72.46;101319.16;5054936;28;46815;-59
2021/08/19 05:56:10;;;;;;;;;6.00;6.00;;;;;19.36;72.91;101320.25;5052514;28;46388;-59
2021/08/19 05:58:36;;;;;;;;;7.25;6.00;;;;;19.29;72.88;101318.06;5056147;28;45418;-59
2021/08/19 06:01:01;;;;;;;;;12.25;7.00;;;;;19.28;73.32;101330.38;5050977;28;45410;-59
2021/08/19 06:03:27;;;;;;;;;6.50;6.00;;;;;19.28;73.24;101326.91;5052998;28;46295;-59
2021/08/19 06:05:52;;;;;;;;;5.75;5.75;;;;;19.26;73.00;101326.13;5052345;28;45333;-59
2021/08/19 06:08:18;;;;;;;;;9.00;8.50;;;;;19.25;73.58;101325.28;5054155;28;45370;-59
2021/08/19 06:10:44;;;;;;;;;8.75;8.00;;;;;19.30;72.89;101332.94;5051612;28;45553;-59
2021/08/19 06:13:09;;;;;;;;;5.75;5.75;;;;;19.36;72.99;101315.00;5052820;28;45405;-59
2021/08/19 06:15:35;;;;;;;;;6.75;6.50;;;;;19.37;72.91;101321.13;5052630;28;45272;-59
2021/08/19 06:18:00;;;;;;;;;8.75;8.75;;;;;19.37;72.81;101316.69;5056029;28;45481;-58
2021/08/19 06:20:26;;;;;;;;;13.50;6.00;;;;;19.37;72.66;101315.84;5051216;28;45546;-59
2021/08/19 06:22:52;;;;;;;;;5.50;3.50;;;;;19.33;72.64;101316.94;5052091;28;46831;-59
2021/08/19 06:25:18;;;;;;;;;7.50;6.00;;;;;19.32;72.73;101326.66;5054306;28;45426;-59
2021/08/19 06:27:44;;;;;;;;;6.00;5.75;;;;;19.30;72.20;101320.63;5050391;28;45284;-59
2021/08/19 06:30:10;;;;;;;;;4.75;4.75;;;;;19.37;72.50;101314.06;5054142;28;45275;-59
2021/08/19 06:32:36;;;;;;;;;7.50;7.00;;;;;19.43;72.24;101318.16;5051545;28;46190;-59
2021/08/19 06:35:02;;;;;;;;;10.00;7.50;;;;;19.48;71.98;101317.91;5051835;28;45651;-59
2021/08/19 06:37:27;;;;;;;;;6.50;6.50;;;;;19.46;72.03;101320.63;5056275;28;45158;-59
2021/08/19 06:39:52;;;;;;;;;17.00;11.25;;;;;19.45;71.90;101321.56;5056586;28;45401;-59
2021/08/19 06:42:18;;;;;;;;;7.75;6.50;;;;;19.45;71.64;101325.06;5050774;28;46005;-59
2021/08/19 06:44:43;;;;;;;;;8.00;6.00;;;;;19.44;71.61;101318.09;5052895;28;45348;-59
2021/08/19 06:47:08;;;;;;;;;9.50;7.75;;;;;19.42;71.64;101319.06;5052465;28;45241;-59
2021/08/19 06:49:34;;;;;;;;;13.50;8.00;;;;;19.40;71.74;101316.53;5052437;28;45422;-59
2021/08/19 06:51:59;;;;;;;;;8.50;6.25;;;;;19.40;72.04;101313.88;5054287;28;46058;-59
2021/08/19 06:54:24;;;;;;;;;6.25;6.00;;;;;19.42;71.99;101319.06;5050009;28;45575;-59
2021/08/19 06:56:50;;;;;;;;;8.50;6.25;;;;;19.44;72.13;101317.22;5051708;28;45470;-59
2021/08/19 06:59:16;;;;;;;;;15.25;10.75;;;;;19.47;71.69;101324.97;5053365;28;45455;-58
2021/08/19 07:01:41;;;;;;;;;16.00;10.75;;;;;19.48;71.72;101323.19;5054494;28;47226;-59
2021/08/19 07:04:07;;;;;;;;;18.00;15.25;;;;;19.45;71.77;101326.84;5049945;28;45446;-59
2021/08/19 07:06:32;;;;;;;;;10.00;8.25;;;;;19.46;71.86;101323.25;5052796;28;45399;-59
2021/08/19 07:08:57;;;;;;;;;9.50;8.75;;;;;19.51;72.01;101326.50;5050499;28;45265;-59
2021/08/19 07:11:23;;;;;;;;;16.00;10.50;;;;;19.53;72.07;101324.63;5058945;28;45436;-59
2021/08/19 07:13:49;;;;;;;;;12.25;7.75;;;;;19.56;71.49;101321.84;5059948;28;45364;-59
2021/08/19 07:16:15;;;;;;;;;13.50;10.25;;;;;19.60;71.92;101320.72;5059295;28;45241;-59
2021/08/19 07:18:40;;;;;;;;;11.25;8.00;;;;;19.68;71.66;101329.06;5059207;28;45356;-58
2021/08/19 07:21:05;;;;;;;;;11.00;7.75;;;;;19.78;70.88;101320.63;5053864;28;46095;-59
2021/08/19 07:23:32;;;;;;;;;11.00;9.00;;;;;19.84;70.62;101313.25;5057928;28;45550;-58
2021/08/19 07:25:57;;;;;;;;;13.25;8.50;;;;;19.86;70.02;101318.44;5058214;28;45291;-59
2021/08/19 07:28:23;;;;;;;;;14.00;10.25;;;;;19.88;70.33;101304.22;5057462;28;45366;-59
2021/08/19 07:30:48;;;;;;;;;7.75;6.50;;;;;20.08;70.09;101318.88;5056638;28;46195;-59
2021/08/19 07:33:13;;;;;;;;;9.75;7.50;;;;;20.16;69.00;101316.66;5057980;28;45420;-59
2021/08/19 07:35:39;;;;;;;;;10.00;7.00;;;;;20.18;68.40;101317.41;5058575;28;45409;-59
2021/08/19 07:38:04;;;;;;;;;11.00;10.75;;;;;20.18;68.89;101311.28;5058523;28;45428;-59
2021/08/19 07:40:31;;;;;;;;;12.50;12.50;;;;;20.17;68.45;101315.69;5061016;28;46175;-59
2021/08/19 07:42:57;;;;;;;;;14.00;9.25;;;;;20.20;68.33;101312.03;5059466;28;45356;-59
2021/08/19 07:45:25;;;;;;;;;13.75;8.00;;;;;20.22;68.07;101304.88;5059387;28;45388;-58
2021/08/19 07:47:50;;;;;;;;;9.50;7.00;;;;;20.15;67.56;101309.66;5063045;28;45445;-59
2021/08/19 07:50:16;;;;;;;;;9.50;7.25;;;;;20.13;67.43;101318.63;5059368;28;45561;-59
2021/08/19 07:52:42;;;;;;;;;12.00;9.25;;;;;20.13;68.29;101322.09;5059720;28;45803;-58
2021/08/19 07:55:09;;;;;;;;;12.00;11.00;;;;;20.14;68.14;101318.53;5059739;28;45541;-59
2021/08/19 07:57:46;;;;;;;;;9.25;7.75;;;;;20.14;67.82;101317.69;5059344;28;45347;-59
2021/08/19 08:00:12;;;;;;;;;10.75;10.75;;;;;20.15;68.11;101316.72;5059271;28;46227;-59
2021/08/19 08:02:38;;;;;;;;;10.00;8.75;;;;;20.21;67.89;101314.56;5059309;28;45350;-58
2021/08/19 08:05:05;;;;;;;;;10.00;8.00;;;;;20.34;67.60;101322.63;5059559;28;45268;-59
2021/08/19 08:07:30;;;;;;;;;8.75;8.25;;;;;20.40;67.01;101327.53;5059407;28;45447;-59
2021/08/19 08:09:56;;;;;;;;;7.25;6.75;;;;;20.42;66.87;101320.41;5059208;28;45337;-61
2021/08/19 08:12:21;;;;;;;;;5.25;4.25;;;;;20.44;66.37;101330.91;5058667;28;45843;-58
2021/08/19 08:14:46;;;;;;;;;10.75;8.75;;;;;20.41;66.70;101323.16;5059256;28;45288;-58
2021/08/19 08:17:11;;;;;;;;;9.75;8.00;;;;;20.46;66.77;101329.88;5059131;28;45510;-58
2021/08/19 08:19:38;;;;;;;;;11.75;9.00;;;;;20.55;66.59;101331.97;5059403;28;45236;-59
2021/08/19 08:22:03;;;;;;;;;9.00;7.50;;;;;20.57;65.91;101321.31;5058081;28;45347;-59
2021/08/19 08:24:29;;;;;;;;;12.25;10.00;;;;;20.56;66.25;101332.81;5059339;28;45209;-59
2021/08/19 08:26:54;;;;;;;;;14.50;12.00;;;;;20.50;66.39;101333.19;5052711;28;45483;-58
2021/08/19 08:29:20;;;;;;;;;17.75;11.00;;;;;20.48;66.74;101333.28;5054057;28;46190;-61
2021/08/19 08:31:45;;;;;;;;;9.75;9.75;;;;;20.57;66.73;101330.06;5053519;28;45365;-61
2021/08/19 08:34:11;;;;;;;;;5.75;4.00;;;;;20.68;66.03;101333.88;5054700;28;45471;-68
2021/08/19 08:36:36;;;;;;;;;10.25;8.50;;;;;20.77;65.70;101336.81;5055579;28;45486;-60
2021/08/19 08:39:04;;;;;;;;;10.75;10.00;;;;;20.79;65.77;101337.56;5051280;28;45472;-59
2021/08/19 08:41:33;;;;;;;;;13.50;9.75;;;;;20.74;65.35;101342.28;5056312;28;45292;-59
2021/08/19 08:43:58;;;;;;;;;11.75;9.25;;;;;20.69;65.42;101343.50;5053018;28;45327;-65
2021/08/19 08:46:26;;;;;;;;;11.25;9.00;;;;;20.63;65.22;101339.44;5056811;28;45351;-61
2021/08/19 08:48:56;;;;;;;;;11.25;10.00;;;;;20.57;65.54;101345.91;5052135;28;46211;-61
2021/08/19 08:51:23;;;;;;;;;11.25;7.75;;;;;20.52;65.06;101339.22;5059125;28;45511;-67
2021/08/19 08:53:50;;;;;;;;;8.75;8.75;;;;;20.53;65.58;101340.91;5055742;28;45181;-58
2021/08/19 08:56:15;;;;;;;;;9.00;8.25;;;;;20.62;65.37;101345.63;5062776;28;45389;-60
2021/08/19 08:58:41;;;;;;;;;11.25;9.00;;;;;20.64;65.84;101346.41;5061929;28;45533;-64
2021/08/19 09:01:06;;;;;;;;;7.25;7.25;;;;;20.62;65.41;101341.22;5062359;28;45331;-66
2021/08/19 09:03:32;;;;;;;;;6.00;5.75;;;;;20.66;63.62;101347.19;5062439;28;45334;-67
2021/08/19 09:05:57;;;;;;;;;8.00;7.00;;;;;20.58;63.56;101350.25;5062509;28;45373;-70
2021/08/19 09:08:27;;;;;;;;;7.50;6.25;;;;;20.56;64.37;101352.16;5062195;28;45422;-69
2021/08/19 09:10:55;;;;;;;;;6.50;5.00;;;;;20.56;64.14;101351.28;5062184;28;45247;-66
2021/08/19 09:13:23;;;;;;;;;7.25;6.50;;;;;20.54;64.21;101359.31;5061936;28;45319;-58
2021/08/19 09:15:50;;;;;;;;;8.00;6.00;;;;;20.52;64.24;101353.28;5061891;28;45446;-57
2021/08/19 09:18:29;;;;;;;;;9.00;7.25;;;;;20.57;64.28;101350.34;5060236;27;45427;-59
2021/08/19 09:20:54;;;;;;;;;7.75;7.75;;;;;20.54;64.93;101353.19;5053371;28;45636;-58
2021/08/19 09:23:19;;;;;;;;;8.75;7.25;;;;;20.53;65.31;101351.47;5057196;28;45441;-59
2021/08/19 09:25:46;;;;;;;;;9.75;8.25;;;;;20.49;65.68;101356.09;5056825;28;45711;-59
2021/08/19 09:28:22;;;;;;;;;12.25;10.75;;;;;20.46;65.91;101352.78;5050179;28;46085;-59
2021/08/19 09:31:03;;;;;;;;;12.00;9.50;;;;;20.48;65.79;101350.91;5054180;28;45350;-58
2021/08/19 09:33:31;;;;;;;;;8.75;8.00;;;;;20.50;65.47;101354.31;5052725;28;45478;-58
2021/08/19 09:35:59;;;;;;;;;14.25;9.50;;;;;20.47;66.28;101349.22;5051895;28;45401;-58
2021/08/19 09:38:34;;;;;;;;;11.25;8.25;;;;;20.48;65.83;101359.69;5055754;28;46189;-58
2021/08/19 09:41:21;;;;;;;;;6.00;5.75;;;;;20.54;65.57;101355.81;5053169;28;45759;-59
2021/08/19 09:43:49;;;;;;;;;13.50;10.00;;;;;20.56;65.94;101354.78;5051558;28;45865;-58
2021/08/19 09:46:17;;;;;;;;;9.25;7.00;;;;;20.63;65.54;101350.84;5052509;28;45520;-58
2021/08/19 09:48:44;;;;;;;;;4.75;4.75;;;;;20.68;65.21;101355.84;5054747;28;46200;-58
2021/08/19 09:51:24;;;;;;;;;9.50;4.75;;;;;20.77;64.82;101352.66;5055908;28;45364;-58
2021/08/19 09:53:50;;;;;;;;;4.25;4.25;;;;;20.80;64.73;101339.25;5050130;28;46255;-58
2021/08/19 09:56:29;;;;;;;;;4.00;4.00;;;;;20.79;64.28;101352.56;5050960;28;45492;-58
2021/08/19 09:59:22;;;;;;;;;4.75;3.25;;;;;20.76;63.20;101347.47;5056571;28;45422;-59
2021/08/19 10:01:51;;;;;;;;;6.50;5.00;;;;;20.78;63.48;101335.84;5046566;28;45739;-59
2021/08/19 10:04:16;;;;;;;;;6.50;5.50;;;;;20.86;62.73;101335.41;5051532;28;45311;-58
2021/08/19 10:06:42;;;;;;;;;5.50;3.25;;;;;20.82;62.46;101329.47;5052450;28;45570;-60
2021/08/19 10:09:07;;;;;;;;;10.25;8.00;;;;;20.81;62.51;101337.47;5055077;28;45770;-65
2021/08/19 10:11:33;;;;;;;;;6.75;5.00;;;;;20.79;62.47;101339.34;5054783;28;45421;-60
2021/08/19 10:14:00;;;;;;;;;5.75;5.75;;;;;20.78;62.49;101335.84;5051034;28;45286;-60
2021/08/19 10:16:29;;;;;;;;;4.75;3.25;;;;;20.84;61.67;101332.00;5051353;27;45485;-61
2021/08/19 10:19:19;;;;;;;;;3.25;2.50;;;;;20.82;61.22;101329.47;5053249;28;46374;-60
2021/08/19 10:21:50;;;;;;;;;3.00;3.00;;;;;20.84;61.56;101327.56;5051500;28;45384;-60
2021/08/19 10:24:17;;;;;;;;;4.50;3.75;;;;;20.83;61.12;101323.25;5054374;28;45586;-60
2021/08/19 10:26:43;;;;;;;;;3.25;2.25;;;;;20.86;61.26;101336.25;5050473;28;45368;-60
2021/08/19 10:29:08;;;;;;;;;4.00;3.00;;;;;20.87;61.61;101332.66;5053876;28;45260;-60
2021/08/19 10:31:38;;;;;;;;;3.75;2.75;;;;;20.94;61.25;101341.06;5052167;28;45297;-60
2021/08/19 10:34:03;;;;;;;;;2.25;2.25;;;;;20.98;61.08;101331.16;5051835;28;45366;-60
2021/08/19 10:36:29;;;;;;;;;5.75;4.00;;;;;21.08;61.46;101333.13;5050077;28;45413;-60
2021/08/19 10:39:19;;;;;;;;;7.33;4.00;;;;;21.09;61.00;101331.34;5052657;28;45446;-60
2021/08/19 10:41:49;;;;;;;;;3.00;3.00;;;;;21.11;61.43;101332.09;5052191;28;45472;-60
2021/08/19 10:44:16;;;;;;;;;4.00;4.00;;;;;21.16;60.75;101325.56;5051159;28;45373;-60
2021/08/19 10:46:44;;;;;;;;;6.50;3.75;;;;;21.19;60.99;101329.81;5053803;28;45429;-60
2021/08/19 10:49:34;;;;;;;;;4.75;4.75;;;;;21.40;60.75;101327.66;5053243;28;45306;-60
2021/08/19 10:52:08;;;;;;;;;3.00;2.50;;;;;21.51;60.20;101333.97;5055235;28;45784;-60
2021/08/19 10:54:41;;;;;;;;;2.75;2.75;;;;;21.59;60.19;101332.63;5050662;28;45374;-60
2021/08/19 10:57:25;;;;;;;;;2.00;2.00;;;;;21.65;59.17;101327.81;5051351;28;45517;-60
2021/08/19 11:00:06;;;;;;;;;3.00;3.00;;;;;21.51;59.55;101328.69;5054436;28;47414;-60
2021/08/19 11:02:40;;;;;;;;;4.25;3.50;;;;;21.45;59.23;101331.72;5052949;28;45567;-60
2021/08/19 11:05:31;;;;;;;;;2.00;2.00;;;;;21.37;60.29;101333.13;5049967;28;45228;-60
2021/08/19 11:07:58;;;;;;;;;3.50;3.25;;;;;21.38;60.03;101332.19;5054062;28;45489;-60
2021/08/19 11:10:32;;;;;;;;;3.25;3.25;;;;;21.34;59.63;101323.59;5054208;28;46053;-60
2021/08/19 11:13:05;;;;;;;;;5.50;3.75;;;;;21.36;60.09;101336.72;5051746;28;45679;-60
2021/08/19 11:15:32;;;;;;;;;3.00;3.00;;;;;21.35;59.39;101335.88;5049589;28;45514;-59
2021/08/19 11:17:59;;;;;;;;;4.50;3.00;;;;;21.38;59.29;101329.53;5051036;28;45513;-59
2021/08/19 11:20:32;;;;;;;;;3.75;3.50;;;;;21.46;59.14;101327.28;5049671;28;47324;-59